Terminal Aerodrome Forecast
Issued by NWS

Home | Current Version | Previous Version | Text Only | Print | Product List | Glossary On
Versions: 1 2 3 4 5 6 7 8 9 10 11 12 13 14 15 16 17
000
FTUS43 KOAX 282300
TAFSNY
TAF
KSNY 282337Z 2900/2924 15012G20KT P6SM VCTS SCT070CB BKN090
      TEMPO 2900/2902 VRB20G35KT 5SM TSRA BKN040CB
     FM290300 16008KT P6SM BKN050
     FM291000 16007KT 3SM BR BKN025
     FM291500 13013KT P6SM OVC040
     FM291900 09015KT 5SM -SHRA OVC040
      TEMPO 2920/2924 4SM TSRA OVC025CB=

USA.gov is the U.S. government's official web portal to all federal, state and local government web resources and services.